sensor_id;sensor_type;location;lat;lon;timestamp;pressure;altitude;pressure_sealevel;temperature;humidity
16821;BME280;8527;49.740;6.604;2023-03-15T00:02:59;99598.94;;;0.79;96.66
16821;BME280;8527;49.740;6.604;2023-03-15T00:07:58;99594.72;;;0.89;95.73
16821;BME280;8527;49.740;6.604;2023-03-15T00:12:59;99593.69;;;0.79;94.97
16821;BME280;8527;49.740;6.604;2023-03-15T00:18:00;99603.91;;;0.82;94.44
16821;BME280;8527;49.740;6.604;2023-03-15T00:23:05;99608.13;;;0.72;94.35
16821;BME280;8527;49.740;6.604;2023-03-15T00:28:04;99617.75;;;0.58;95.55
16821;BME280;8527;49.740;6.604;2023-03-15T00:33:09;99621.41;;;0.55;95.77
16821;BME280;8527;49.740;6.604;2023-03-15T00:38:09;99623.75;;;0.47;95.54
16821;BME280;8527;49.740;6.604;2023-03-15T00:43:10;99618.53;;;0.47;96.74
16821;BME280;8527;49.740;6.604;2023-03-15T00:48:17;99619.34;;;0.48;97.43
16821;BME280;8527;49.740;6.604;2023-03-15T00:53:16;99624.56;;;0.48;96.02
16821;BME280;8527;49.740;6.604;2023-03-15T00:58:14;99629.50;;;0.39;96.07
16821;BME280;8527;49.740;6.604;2023-03-15T01:03:16;99635.53;;;0.40;95.33
16821;BME280;8527;49.740;6.604;2023-03-15T01:08:20;99644.63;;;0.34;95.55
16821;BME280;8527;49.740;6.604;2023-03-15T01:13:24;99641.91;;;0.36;96.70
16821;BME280;8527;49.740;6.604;2023-03-15T01:18:28;99639.72;;;0.30;95.95
16821;BME280;8527;49.740;6.604;2023-03-15T01:23:26;99651.53;;;0.22;97.15
16821;BME280;8527;49.740;6.604;2023-03-15T01:28:25;99651.28;;;0.12;97.89
16821;BME280;8527;49.740;6.604;2023-03-15T01:33:28;99654.66;;;0.15;99.19
16821;BME280;8527;49.740;6.604;2023-03-15T01:38:27;99659.88;;;0.15;100.00
16821;BME280;8527;49.740;6.604;2023-03-15T01:43:35;99666.34;;;0.09;100.00
16821;BME280;8527;49.740;6.604;2023-03-15T01:48:38;99668.81;;;0.10;100.00
16821;BME280;8527;49.740;6.604;2023-03-15T01:53:41;99673.44;;;0.07;100.00
16821;BME280;8527;49.740;6.604;2023-03-15T01:58:42;99668.41;;;0.04;100.00
16821;BME280;8527;49.740;6.604;2023-03-15T02:03:54;99670.69;;;0.08;100.00
16821;BME280;8527;49.740;6.604;2023-03-15T02:08:57;99669.66;;;0.11;100.00
16821;BME280;8527;49.740;6.604;2023-03-15T02:13:57;99665.41;;;0.10;100.00
16821;BME280;8527;49.740;6.604;2023-03-15T02:19:03;99669.75;;;0.09;100.00
16821;BME280;8527;49.740;6.604;2023-03-15T02:24:12;99661.84;;;0.11;100.00
16821;BME280;8527;49.740;6.604;2023-03-15T02:29:18;99662.66;;;0.11;100.00
16821;BME280;8527;49.740;6.604;2023-03-15T02:34:19;99660.59;;;0.17;100.00
16821;BME280;8527;49.740;6.604;2023-03-15T02:39:22;99663.00;;;0.07;100.00
16821;BME280;8527;49.740;6.604;2023-03-15T02:44:27;99660.28;;;0.08;100.00
16821;BME280;8527;49.740;6.604;2023-03-15T02:49:30;99658.81;;;0.04;100.00
16821;BME280;8527;49.740;6.604;2023-03-15T02:54:29;99658.81;;;0.04;100.00
16821;BME280;8527;49.740;6.604;2023-03-15T02:59:31;99660.78;;;0.01;100.00
16821;BME280;8527;49.740;6.604;2023-03-15T03:04:29;99662.75;;;-0.03;100.00
16821;BME280;8527;49.740;6.604;2023-03-15T03:09:28;99671.31;;;-0.01;100.00
16821;BME280;8527;49.740;6.604;2023-03-15T03:14:32;99673.91;;;-0.01;100.00
16821;BME280;8527;49.740;6.604;2023-03-15T03:19:30;99673.31;;;-0.05;100.00
16821;BME280;8527;49.740;6.604;2023-03-15T03:24:29;99675.63;;;0.00;100.00
16821;BME280;8527;49.740;6.604;2023-03-15T03:29:33;99661.63;;;0.01;100.00
16821;BME280;8527;49.740;6.604;2023-03-15T03:34:31;99671.22;;;0.01;100.00
16821;BME280;8527;49.740;6.604;2023-03-15T03:39:35;99663.91;;;0.06;100.00
16821;BME280;8527;49.740;6.604;2023-03-15T03:44:36;99667.28;;;0.08;100.00
16821;BME280;8527;49.740;6.604;2023-03-15T03:49:37;99680.50;;;0.05;100.00
16821;BME280;8527;49.740;6.604;2023-03-15T03:54:43;99698.75;;;0.05;100.00
16821;BME280;8527;49.740;6.604;2023-03-15T03:59:44;99707.66;;;0.15;100.00
16821;BME280;8527;49.740;6.604;2023-03-15T04:04:46;99708.50;;;0.16;100.00
16821;BME280;8527;49.740;6.604;2023-03-15T04:09:45;99703.50;;;0.25;100.00
16821;BME280;8527;49.740;6.604;2023-03-15T04:14:46;99709.56;;;0.26;100.00
16821;BME280;8527;49.740;6.604;2023-03-15T04:19:44;99706.81;;;0.27;100.00
16821;BME280;8527;49.740;6.604;2023-03-15T04:24:46;99721.75;;;0.25;100.00
16821;BME280;8527;49.740;6.604;2023-03-15T04:29:48;99722.16;;;0.32;100.00
16821;BME280;8527;49.740;6.604;2023-03-15T04:34:50;99736.16;;;0.31;100.00
16821;BME280;8527;49.740;6.604;2023-03-15T04:39:50;99719.97;;;0.39;100.00
16821;BME280;8527;49.740;6.604;2023-03-15T04:44:56;99736.91;;;0.46;100.00
16821;BME280;8527;49.740;6.604;2023-03-15T04:49:54;99736.47;;;0.52;100.00
16821;BME280;8527;49.740;6.604;2023-03-15T04:55:02;99743.59;;;0.50;100.00
16821;BME280;8527;49.740;6.604;2023-03-15T05:00:07;99750.06;;;0.58;100.00
16821;BME280;8527;49.740;6.604;2023-03-15T05:05:10;99752.34;;;0.62;100.00
16821;BME280;8527;49.740;6.604;2023-03-15T05:10:09;99751.22;;;0.66;100.00
16821;BME280;8527;49.740;6.604;2023-03-15T05:15:15;99752.88;;;0.67;100.00
16821;BME280;8527;49.740;6.604;2023-03-15T05:20:14;99751.94;;;0.68;100.00
16821;BME280;8527;49.740;6.604;2023-03-15T05:25:16;99756.31;;;0.68;100.00
16821;BME280;8527;49.740;6.604;2023-03-15T05:30:23;99753.53;;;0.71;100.00
16821;BME280;8527;49.740;6.604;2023-03-15T05:35:21;99748.69;;;0.65;100.00
16821;BME280;8527;49.740;6.604;2023-03-15T05:40:22;99753.09;;;0.64;100.00
16821;BME280;8527;49.740;6.604;2023-03-15T05:45:24;99762.91;;;0.61;100.00
16821;BME280;8527;49.740;6.604;2023-03-15T05:50:22;99765.22;;;0.65;100.00
16821;BME280;8527;49.740;6.604;2023-03-15T05:55:25;99779.09;;;0.66;100.00
16821;BME280;8527;49.740;6.604;2023-03-15T06:00:26;99773.56;;;0.70;100.00
16821;BME280;8527;49.740;6.604;2023-03-15T06:05:25;99777.03;;;0.71;100.00
16821;BME280;8527;49.740;6.604;2023-03-15T06:10:28;99778.38;;;0.77;100.00
16821;BME280;8527;49.740;6.604;2023-03-15T06:15:33;99769.69;;;0.76;100.00
16821;BME280;8527;49.740;6.604;2023-03-15T06:20:31;99772.31;;;0.76;100.00
16821;BME280;8527;49.740;6.604;2023-03-15T06:25:33;99777.63;;;0.75;100.00
16821;BME280;8527;49.740;6.604;2023-03-15T06:30:34;99792.34;;;0.76;100.00
16821;BME280;8527;49.740;6.604;2023-03-15T06:35:32;99788.69;;;0.78;100.00
16821;BME280;8527;49.740;6.604;2023-03-15T06:40:31;99794.47;;;0.83;100.00
16821;BME280;8527;49.740;6.604;2023-03-15T06:45:35;99799.56;;;0.85;100.00
16821;BME280;8527;49.740;6.604;2023-03-15T06:50:33;99798.75;;;0.84;100.00
16821;BME280;8527;49.740;6.604;2023-03-15T06:55:41;99797.88;;;0.84;100.00
16821;BME280;8527;49.740;6.604;2023-03-15T07:00:42;99805.72;;;0.84;100.00
16821;BME280;8527;49.740;6.604;2023-03-15T07:05:46;99814.19;;;0.75;100.00
16821;BME280;8527;49.740;6.604;2023-03-15T07:10:46;99817.53;;;0.77;100.00
16821;BME280;8527;49.740;6.604;2023-03-15T07:15:53;99820.66;;;0.82;100.00
16821;BME280;8527;49.740;6.604;2023-03-15T07:20:59;99838.84;;;0.83;100.00
16821;BME280;8527;49.740;6.604;2023-03-15T07:25:58;99841.34;;;0.85;100.00
16821;BME280;8527;49.740;6.604;2023-03-15T07:31:04;99839.28;;;0.90;100.00
16821;BME280;8527;49.740;6.604;2023-03-15T07:36:06;99842.59;;;1.05;100.00
16821;BME280;8527;49.740;6.604;2023-03-15T07:41:08;99844.91;;;1.10;100.00
16821;BME280;8527;49.740;6.604;2023-03-15T07:46:09;99838.72;;;1.11;100.00
16821;BME280;8527;49.740;6.604;2023-03-15T07:51:08;99852.00;;;1.08;100.00
16821;BME280;8527;49.740;6.604;2023-03-15T07:56:06;99862.38;;;1.09;100.00
16821;BME280;8527;49.740;6.604;2023-03-15T08:01:05;99881.38;;;1.11;100.00
16821;BME280;8527;49.740;6.604;2023-03-15T08:06:06;99885.44;;;1.16;100.00
16821;BME280;8527;49.740;6.604;2023-03-15T08:11:05;99896.75;;;1.16;100.00
16821;BME280;8527;49.740;6.604;2023-03-15T08:16:04;99904.59;;;1.16;100.00
16821;BME280;8527;49.740;6.604;2023-03-15T08:21:08;99910.34;;;1.34;100.00
16821;BME280;8527;49.740;6.604;2023-03-15T08:26:08;99913.16;;;1.44;100.00
16821;BME280;8527;49.740;6.604;2023-03-15T08:31:07;99932.59;;;1.53;100.00
16821;BME280;8527;49.740;6.604;2023-03-15T08:36:13;99919.31;;;1.56;100.00
16821;BME280;8527;49.740;6.604;2023-03-15T08:41:14;99938.16;;;1.61;100.00
16821;BME280;8527;49.740;6.604;2023-03-15T08:46:15;99936.22;;;1.76;100.00
16821;BME280;8527;49.740;6.604;2023-03-15T08:51:19;99950.25;;;1.75;100.00
16821;BME280;8527;49.740;6.604;2023-03-15T08:56:19;99949.94;;;1.80;100.00
16821;BME280;8527;49.740;6.604;2023-03-15T09:01:18;99953.91;;;1.86;100.00
16821;BME280;8527;49.740;6.604;2023-03-15T09:06:19;99964.03;;;2.03;100.00
16821;BME280;8527;49.740;6.604;2023-03-15T09:11:17;99971.34;;;1.98;100.00
16821;BME280;8527;49.740;6.604;2023-03-15T09:16:15;99989.81;;;1.96;100.00
16821;BME280;8527;49.740;6.604;2023-03-15T09:21:14;99994.06;;;2.10;100.00
16821;BME280;8527;49.740;6.604;2023-03-15T17:43:40;100065.91;;;6.50;77.61
16821;BME280;8527;49.740;6.604;2023-03-15T17:48:39;100064.50;;;6.45;77.70
16821;BME280;8527;49.740;6.604;2023-03-15T17:53:37;100068.88;;;6.25;77.82
16821;BME280;8527;49.740;6.604;2023-03-15T17:58:36;100059.56;;;6.21;78.81
16821;BME280;8527;49.740;6.604;2023-03-15T18:03:37;100071.72;;;6.12;79.36
16821;BME280;8527;49.740;6.604;2023-03-15T18:08:35;100081.47;;;6.00;80.17
16821;BME280;8527;49.740;6.604;2023-03-15T18:13:34;100085.53;;;5.83;80.53
16821;BME280;8527;49.740;6.604;2023-03-15T18:18:38;100092.22;;;5.66;80.55
16821;BME280;8527;49.740;6.604;2023-03-15T18:23:37;100096.38;;;5.47;81.18
16821;BME280;8527;49.740;6.604;2023-03-15T18:28:35;100097.47;;;5.45;81.25
16821;BME280;8527;49.740;6.604;2023-03-15T18:33:36;100101.63;;;5.26;82.22
16821;BME280;8527;49.740;6.604;2023-03-15T18:38:37;100110.56;;;5.35;81.98
16821;BME280;8527;49.740;6.604;2023-03-15T18:43:35;100111.03;;;5.29;82.26
16821;BME280;8527;49.740;6.604;2023-03-15T18:48:34;100115.84;;;5.24;81.34
16821;BME280;8527;49.740;6.604;2023-03-15T18:53:32;100120.81;;;5.05;82.54
16821;BME280;8527;49.740;6.604;2023-03-15T18:58:33;100100.88;;;4.91;83.04
16821;BME280;8527;49.740;6.604;2023-03-15T19:03:32;100114.16;;;4.78;84.04
16821;BME280;8527;49.740;6.604;2023-03-15T19:08:30;100116.19;;;4.86;83.21
16821;BME280;8527;49.740;6.604;2023-03-15T19:13:29;100117.03;;;4.87;82.73
16821;BME280;8527;49.740;6.604;2023-03-15T19:18:30;100119.06;;;4.83;82.68
16821;BME280;8527;49.740;6.604;2023-03-15T19:23:29;100125.75;;;4.64;83.64
16821;BME280;8527;49.740;6.604;2023-03-15T19:28:28;100113.47;;;4.65;83.61
16821;BME280;8527;49.740;6.604;2023-03-15T19:33:30;100118.47;;;4.68;83.28
16821;BME280;8527;49.740;6.604;2023-03-15T19:38:31;100125.41;;;4.58;84.46
16821;BME280;8527;49.740;6.604;2023-03-15T19:43:29;100133.53;;;4.43;84.70
16821;BME280;8527;49.740;6.604;2023-03-15T19:48:31;100133.16;;;4.36;85.51
16821;BME280;8527;49.740;6.604;2023-03-15T19:53:29;100135.09;;;4.46;84.54
16821;BME280;8527;49.740;6.604;2023-03-15T19:58:28;100134.03;;;4.37;85.34
16821;BME280;8527;49.740;6.604;2023-03-15T20:03:26;100127.44;;;4.20;86.00
16821;BME280;8527;49.740;6.604;2023-03-15T20:08:31;100129.34;;;4.18;86.38
16821;BME280;8527;49.740;6.604;2023-03-15T20:13:30;100136.38;;;4.17;86.30
16821;BME280;8527;49.740;6.604;2023-03-15T20:18:28;100143.41;;;4.05;87.47
16821;BME280;8527;49.740;6.604;2023-03-15T20:23:27;100150.34;;;4.06;86.32
16821;BME280;8527;49.740;6.604;2023-03-15T20:28:28;100146.72;;;3.96;87.05
16821;BME280;8527;49.740;6.604;2023-03-15T20:33:26;100143.63;;;4.02;87.52
16821;BME280;8527;49.740;6.604;2023-03-15T20:38:27;100147.06;;;3.91;88.06
16821;BME280;8527;49.740;6.604;2023-03-15T20:43:31;100154.16;;;3.66;89.19
16821;BME280;8527;49.740;6.604;2023-03-15T20:48:31;100142.13;;;3.75;87.53
16821;BME280;8527;49.740;6.604;2023-03-15T20:53:30;100139.03;;;3.70;87.30
16821;BME280;8527;49.740;6.604;2023-03-15T20:58:31;100133.06;;;3.68;88.09
16821;BME280;8527;49.740;6.604;2023-03-15T21:03:30;100140.41;;;3.63;87.75
16821;BME280;8527;49.740;6.604;2023-03-15T21:08:29;100143.63;;;3.55;87.46
16821;BME280;8527;49.740;6.604;2023-03-15T21:13:31;100144.06;;;3.49;86.38
16821;BME280;8527;49.740;6.604;2023-03-15T21:18:31;100146.31;;;3.42;87.18
16821;BME280;8527;49.740;6.604;2023-03-15T21:23:30;100149.44;;;3.23;88.59
16821;BME280;8527;49.740;6.604;2023-03-15T21:28:32;100149.88;;;3.17;88.69
16821;BME280;8527;49.740;6.604;2023-03-15T21:33:31;100147.81;;;3.09;88.90
16821;BME280;8527;49.740;6.604;2023-03-15T21:38:31;100144.56;;;3.05;88.92
16821;BME280;8527;49.740;6.604;2023-03-15T21:43:33;100150.03;;;2.89;90.30
16821;BME280;8527;49.740;6.604;2023-03-15T21:48:32;100140.50;;;2.88;88.67
16821;BME280;8527;49.740;6.604;2023-03-15T21:53:31;100144.53;;;2.81;90.17
16821;BME280;8527;49.740;6.604;2023-03-15T21:58:33;100151.25;;;2.72;88.94
16821;BME280;8527;49.740;6.604;2023-03-15T22:03:31;100148.88;;;2.56;89.99
16821;BME280;8527;49.740;6.604;2023-03-15T22:08:30;100142.06;;;2.66;88.52
16821;BME280;8527;49.740;6.604;2023-03-15T22:13:28;100138.91;;;2.61;87.82
16821;BME280;8527;49.740;6.604;2023-03-15T22:18:29;100130.53;;;2.56;87.50
16821;BME280;8527;49.740;6.604;2023-03-15T22:23:28;100126.97;;;2.44;88.29
16821;BME280;8527;49.740;6.604;2023-03-15T22:28:26;100138.94;;;2.35;88.62
16821;BME280;8527;49.740;6.604;2023-03-15T22:33:25;100140.19;;;2.30;89.26
16821;BME280;8527;49.740;6.604;2023-03-15T22:38:26;100142.06;;;2.15;90.17
16821;BME280;8527;49.740;6.604;2023-03-15T22:43:32;100137.78;;;2.01;90.19
16821;BME280;8527;49.740;6.604;2023-03-15T22:48:30;100127.41;;;1.99;89.25
16821;BME280;8527;49.740;6.604;2023-03-15T22:53:31;100131.69;;;1.87;90.86
16821;BME280;8527;49.740;6.604;2023-03-15T22:58:30;100121.53;;;1.95;89.92
16821;BME280;8527;49.740;6.604;2023-03-15T23:03:28;100115.47;;;1.95;89.87
16821;BME280;8527;49.740;6.604;2023-03-15T23:08:27;100127.94;;;1.78;91.28
16821;BME280;8527;49.740;6.604;2023-03-15T23:13:28;100137.19;;;1.69;90.85
16821;BME280;8527;49.740;6.604;2023-03-15T23:18:26;100137.72;;;1.62;89.94
16821;BME280;8527;49.740;6.604;2023-03-15T23:23:28;100130.72;;;1.62;90.83
16821;BME280;8527;49.740;6.604;2023-03-15T23:28:29;100132.91;;;1.56;91.56
16821;BME280;8527;49.740;6.604;2023-03-15T23:33:27;100134.50;;;1.44;93.65
16821;BME280;8527;49.740;6.604;2023-03-15T23:38:28;100118.91;;;1.29;93.75
16821;BME280;8527;49.740;6.604;2023-03-15T23:43:31;100119.75;;;1.30;94.30
16821;BME280;8527;49.740;6.604;2023-03-15T23:48:31;100127.78;;;1.26;93.59
16821;BME280;8527;49.740;6.604;2023-03-15T23:53:30;100130.59;;;1.23;93.37
16821;BME280;8527;49.740;6.604;2023-03-15T23:58:31;100132.75;;;1.17;93.45
